sensor_id;sensor_type;location;lat;lon;timestamp;temperature;humidity
54846;DHT22;53889;50.084;8.646;2023-07-09T00:01:53;24.30;69.90
54846;DHT22;53889;50.084;8.646;2023-07-09T00:04:22;24.30;70.10
54846;DHT22;53889;50.084;8.646;2023-07-09T00:06:50;24.30;70.10
54846;DHT22;53889;50.084;8.646;2023-07-09T00:09:19;24.30;70.40
54846;DHT22;53889;50.084;8.646;2023-07-09T00:11:46;25.10;70.90
54846;DHT22;53889;50.084;8.646;2023-07-09T00:14:15;23.90;71.00
54846;DHT22;53889;50.084;8.646;2023-07-09T00:16:44;23.80;71.60
54846;DHT22;53889;50.084;8.646;2023-07-09T00:19:15;23.80;72.10
54846;DHT22;53889;50.084;8.646;2023-07-09T00:21:43;23.80;72.00
54846;DHT22;53889;50.084;8.646;2023-07-09T00:24:12;23.80;71.90
54846;DHT22;53889;50.084;8.646;2023-07-09T00:26:40;24.00;72.00
54846;DHT22;53889;50.084;8.646;2023-07-09T00:29:08;23.70;72.80
54846;DHT22;53889;50.084;8.646;2023-07-09T00:31:36;23.90;72.10
54846;DHT22;53889;50.084;8.646;2023-07-09T00:34:04;26.90;74.30
54846;DHT22;53889;50.084;8.646;2023-07-09T00:36:31;23.70;72.50
54846;DHT22;53889;50.084;8.646;2023-07-09T00:38:58;23.40;72.90
54846;DHT22;53889;50.084;8.646;2023-07-09T00:41:34;23.40;73.10
54846;DHT22;53889;50.084;8.646;2023-07-09T00:44:21;25.80;74.60
54846;DHT22;53889;50.084;8.646;2023-07-09T00:47:24;23.40;73.40
54846;DHT22;53889;50.084;8.646;2023-07-09T00:50:08;23.40;73.30
54846;DHT22;53889;50.084;8.646;2023-07-09T00:52:41;23.70;73.20
54846;DHT22;53889;50.084;8.646;2023-07-09T00:55:15;23.50;73.10
54846;DHT22;53889;50.084;8.646;2023-07-09T00:57:47;24.60;73.60
54846;DHT22;53889;50.084;8.646;2023-07-09T01:00:23;23.50;73.40
54846;DHT22;53889;50.084;8.646;2023-07-09T01:02:53;23.50;73.10
54846;DHT22;53889;50.084;8.646;2023-07-09T01:05:20;23.30;73.70
54846;DHT22;53889;50.084;8.646;2023-07-09T01:07:48;23.20;74.00
54846;DHT22;53889;50.084;8.646;2023-07-09T01:10:15;22.90;74.50
54846;DHT22;53889;50.084;8.646;2023-07-09T01:12:46;22.00;74.00
54846;DHT22;53889;50.084;8.646;2023-07-09T01:15:14;22.70;75.00
54846;DHT22;53889;50.084;8.646;2023-07-09T01:17:41;22.80;75.20
54846;DHT22;53889;50.084;8.646;2023-07-09T01:20:15;22.70;75.60
54846;DHT22;53889;50.084;8.646;2023-07-09T01:22:44;22.50;75.80
54846;DHT22;53889;50.084;8.646;2023-07-09T01:25:14;23.60;77.30
54846;DHT22;53889;50.084;8.646;2023-07-09T01:27:44;22.60;76.20
54846;DHT22;53889;50.084;8.646;2023-07-09T01:30:13;22.50;76.30
54846;DHT22;53889;50.084;8.646;2023-07-09T01:32:41;22.40;76.90
54846;DHT22;53889;50.084;8.646;2023-07-09T01:35:14;22.30;76.80
54846;DHT22;53889;50.084;8.646;2023-07-09T01:37:44;23.40;78.20
54846;DHT22;53889;50.084;8.646;2023-07-09T01:40:14;21.90;78.20
54846;DHT22;53889;50.084;8.646;2023-07-09T01:42:42;21.90;78.30
54846;DHT22;53889;50.084;8.646;2023-07-09T01:45:09;21.90;78.30
54846;DHT22;53889;50.084;8.646;2023-07-09T01:47:36;22.00;78.10
54846;DHT22;53889;50.084;8.646;2023-07-09T01:50:04;22.10;78.10
54846;DHT22;53889;50.084;8.646;2023-07-09T01:52:32;22.20;77.80
54846;DHT22;53889;50.084;8.646;2023-07-09T01:55:03;22.20;77.80
54846;DHT22;53889;50.084;8.646;2023-07-09T01:57:30;22.20;78.00
54846;DHT22;53889;50.084;8.646;2023-07-09T02:00:02;22.10;78.10
54846;DHT22;53889;50.084;8.646;2023-07-09T02:02:39;22.60;79.00
54846;DHT22;53889;50.084;8.646;2023-07-09T02:05:10;21.90;79.20
54846;DHT22;53889;50.084;8.646;2023-07-09T02:07:37;21.80;79.80
54846;DHT22;53889;50.084;8.646;2023-07-09T02:10:07;24.20;81.60
54846;DHT22;53889;50.084;8.646;2023-07-09T02:12:34;21.50;81.10
54846;DHT22;53889;50.084;8.646;2023-07-09T02:15:02;21.40;81.50
54846;DHT22;53889;50.084;8.646;2023-07-09T02:17:29;21.40;81.20
54846;DHT22;53889;50.084;8.646;2023-07-09T02:19:56;24.50;82.80
54846;DHT22;53889;50.084;8.646;2023-07-09T02:22:24;21.50;81.20
54846;DHT22;53889;50.084;8.646;2023-07-09T02:24:51;21.90;81.30
54846;DHT22;53889;50.084;8.646;2023-07-09T02:27:21;23.00;81.50
54846;DHT22;53889;50.084;8.646;2023-07-09T02:29:48;21.80;81.10
54846;DHT22;53889;50.084;8.646;2023-07-09T02:32:18;21.40;80.60
54846;DHT22;53889;50.084;8.646;2023-07-09T02:34:45;23.70;80.50
54846;DHT22;53889;50.084;8.646;2023-07-09T02:37:15;22.10;79.90
54846;DHT22;53889;50.084;8.646;2023-07-09T02:39:43;22.10;79.20
54846;DHT22;53889;50.084;8.646;2023-07-09T02:42:11;22.00;79.30
54846;DHT22;53889;50.084;8.646;2023-07-09T02:44:41;22.70;79.80
54846;DHT22;53889;50.084;8.646;2023-07-09T02:47:09;21.60;80.00
54846;DHT22;53889;50.084;8.646;2023-07-09T02:49:37;21.50;80.50
54846;DHT22;53889;50.084;8.646;2023-07-09T02:52:04;21.40;81.00
54846;DHT22;53889;50.084;8.646;2023-07-09T02:54:32;21.30;81.40
54846;DHT22;53889;50.084;8.646;2023-07-09T02:56:59;21.30;81.50
54846;DHT22;53889;50.084;8.646;2023-07-09T02:59:26;21.20;81.70
54846;DHT22;53889;50.084;8.646;2023-07-09T03:01:57;21.10;82.30
54846;DHT22;53889;50.084;8.646;2023-07-09T03:04:24;21.00;82.70
54846;DHT22;53889;50.084;8.646;2023-07-09T03:06:50;21.00;82.90
54846;DHT22;53889;50.084;8.646;2023-07-09T03:09:17;21.40;83.30
54846;DHT22;53889;50.084;8.646;2023-07-09T03:11:45;22.40;84.20
54846;DHT22;53889;50.084;8.646;2023-07-09T03:14:12;22.10;84.30
54846;DHT22;53889;50.084;8.646;2023-07-09T03:16:39;21.00;83.90
54846;DHT22;53889;50.084;8.646;2023-07-09T03:19:07;20.90;83.70
54846;DHT22;53889;50.084;8.646;2023-07-09T03:21:34;20.90;84.20
54846;DHT22;53889;50.084;8.646;2023-07-09T03:24:01;20.90;84.00
54846;DHT22;53889;50.084;8.646;2023-07-09T03:26:28;21.50;84.20
54846;DHT22;53889;50.084;8.646;2023-07-09T03:28:55;22.50;84.60
54846;DHT22;53889;50.084;8.646;2023-07-09T03:31:23;21.20;83.70
54846;DHT22;53889;50.084;8.646;2023-07-09T03:33:50;21.40;83.10
54846;DHT22;53889;50.084;8.646;2023-07-09T03:36:19;22.60;83.50
54846;DHT22;53889;50.084;8.646;2023-07-09T03:38:47;22.70;83.60
54846;DHT22;53889;50.084;8.646;2023-07-09T03:41:14;23.30;84.20
54846;DHT22;53889;50.084;8.646;2023-07-09T03:43:41;21.10;83.60
54846;DHT22;53889;50.084;8.646;2023-07-09T03:46:08;21.20;83.40
54846;DHT22;53889;50.084;8.646;2023-07-09T03:48:35;21.20;83.90
54846;DHT22;53889;50.084;8.646;2023-07-09T03:51:02;21.20;83.50
54846;DHT22;53889;50.084;8.646;2023-07-09T03:53:30;22.50;84.20
54846;DHT22;53889;50.084;8.646;2023-07-09T03:55:59;21.20;83.60
54846;DHT22;53889;50.084;8.646;2023-07-09T03:58:26;21.20;83.50
54846;DHT22;53889;50.084;8.646;2023-07-09T04:00:53;21.10;84.60
54846;DHT22;53889;50.084;8.646;2023-07-09T04:03:21;21.10;84.80
54846;DHT22;53889;50.084;8.646;2023-07-09T04:05:48;21.30;83.90
54846;DHT22;53889;50.084;8.646;2023-07-09T04:08:15;21.50;83.50
54846;DHT22;53889;50.084;8.646;2023-07-09T04:10:43;21.20;83.90
54846;DHT22;53889;50.084;8.646;2023-07-09T04:13:10;21.00;84.60
54846;DHT22;53889;50.084;8.646;2023-07-09T04:15:37;21.00;85.00
54846;DHT22;53889;50.084;8.646;2023-07-09T04:18:04;21.10;84.80
54846;DHT22;53889;50.084;8.646;2023-07-09T04:20:30;21.20;84.70
54846;DHT22;53889;50.084;8.646;2023-07-09T04:22:57;21.30;84.60
54846;DHT22;53889;50.084;8.646;2023-07-09T04:25:24;21.20;84.70
54846;DHT22;53889;50.084;8.646;2023-07-09T04:27:52;21.30;84.50
54846;DHT22;53889;50.084;8.646;2023-07-09T04:30:20;21.50;84.20
54846;DHT22;53889;50.084;8.646;2023-07-09T04:32:46;21.40;84.10
54846;DHT22;53889;50.084;8.646;2023-07-09T04:35:14;21.60;84.30
54846;DHT22;53889;50.084;8.646;2023-07-09T04:37:41;22.60;84.70
54846;DHT22;53889;50.084;8.646;2023-07-09T04:40:22;21.80;83.60
54846;DHT22;53889;50.084;8.646;2023-07-09T04:42:49;22.00;83.00
54846;DHT22;53889;50.084;8.646;2023-07-09T04:45:17;22.30;82.80
54846;DHT22;53889;50.084;8.646;2023-07-09T04:47:44;22.40;81.80
54846;DHT22;53889;50.084;8.646;2023-07-09T04:50:11;22.70;81.30
54846;DHT22;53889;50.084;8.646;2023-07-09T04:52:39;22.90;81.20
54846;DHT22;53889;50.084;8.646;2023-07-09T04:55:06;23.10;80.20
54846;DHT22;53889;50.084;8.646;2023-07-09T04:57:34;23.30;79.50
54846;DHT22;53889;50.084;8.646;2023-07-09T05:00:01;23.60;78.90
54846;DHT22;53889;50.084;8.646;2023-07-09T05:02:31;23.90;78.10
54846;DHT22;53889;50.084;8.646;2023-07-09T05:04:58;24.60;77.50
54846;DHT22;53889;50.084;8.646;2023-07-09T05:07:25;24.50;76.50
54846;DHT22;53889;50.084;8.646;2023-07-09T05:09:52;25.50;76.20
54846;DHT22;53889;50.084;8.646;2023-07-09T05:12:19;25.00;75.00
54846;DHT22;53889;50.084;8.646;2023-07-09T05:14:46;25.10;75.50
54846;DHT22;53889;50.084;8.646;2023-07-09T05:17:13;25.10;75.10
54846;DHT22;53889;50.084;8.646;2023-07-09T05:19:41;25.40;75.20
54846;DHT22;53889;50.084;8.646;2023-07-09T05:22:08;25.20;74.60
54846;DHT22;53889;50.084;8.646;2023-07-09T05:24:35;25.20;74.60
54846;DHT22;53889;50.084;8.646;2023-07-09T05:27:02;25.70;74.10
54846;DHT22;53889;50.084;8.646;2023-07-09T05:29:29;25.70;73.60
54846;DHT22;53889;50.084;8.646;2023-07-09T05:31:56;26.10;72.80
54846;DHT22;53889;50.084;8.646;2023-07-09T05:34:23;26.30;72.00
54846;DHT22;53889;50.084;8.646;2023-07-09T05:36:51;26.40;71.90
54846;DHT22;53889;50.084;8.646;2023-07-09T05:39:18;26.60;71.20
54846;DHT22;53889;50.084;8.646;2023-07-09T05:41:45;26.90;71.20
54846;DHT22;53889;50.084;8.646;2023-07-09T05:44:12;27.70;70.90
54846;DHT22;53889;50.084;8.646;2023-07-09T05:46:39;26.80;70.70
54846;DHT22;53889;50.084;8.646;2023-07-09T05:49:06;27.30;70.50
54846;DHT22;53889;50.084;8.646;2023-07-09T05:51:36;27.40;70.60
54846;DHT22;53889;50.084;8.646;2023-07-09T05:54:19;26.90;71.00
54846;DHT22;53889;50.084;8.646;2023-07-09T05:56:46;27.30;72.00
54846;DHT22;53889;50.084;8.646;2023-07-09T05:59:13;27.50;72.40
54846;DHT22;53889;50.084;8.646;2023-07-09T06:01:40;27.80;71.70
54846;DHT22;53889;50.084;8.646;2023-07-09T06:04:07;27.80;72.20
54846;DHT22;53889;50.084;8.646;2023-07-09T06:06:34;28.80;74.10
54846;DHT22;53889;50.084;8.646;2023-07-09T06:09:00;30.40;74.30
54846;DHT22;53889;50.084;8.646;2023-07-09T06:11:29;28.00;71.90
54846;DHT22;53889;50.084;8.646;2023-07-09T06:13:56;28.00;71.50
54846;DHT22;53889;50.084;8.646;2023-07-09T06:16:24;28.30;71.00
54846;DHT22;53889;50.084;8.646;2023-07-09T06:18:50;28.50;70.50
54846;DHT22;53889;50.084;8.646;2023-07-09T06:21:18;28.50;69.80
54846;DHT22;53889;50.084;8.646;2023-07-09T06:23:45;28.50;69.70
54846;DHT22;53889;50.084;8.646;2023-07-09T06:26:12;28.80;69.70
54846;DHT22;53889;50.084;8.646;2023-07-09T06:28:40;28.30;69.30
54846;DHT22;53889;50.084;8.646;2023-07-09T06:31:07;28.00;70.90
54846;DHT22;53889;50.084;8.646;2023-07-09T06:33:33;28.50;70.30
54846;DHT22;53889;50.084;8.646;2023-07-09T06:36:01;28.70;69.30
54846;DHT22;53889;50.084;8.646;2023-07-09T06:38:28;30.90;69.50
54846;DHT22;53889;50.084;8.646;2023-07-09T06:40:56;29.70;66.60
54846;DHT22;53889;50.084;8.646;2023-07-09T06:43:23;30.60;67.10
54846;DHT22;53889;50.084;8.646;2023-07-09T06:45:53;30.30;65.50
54846;DHT22;53889;50.084;8.646;2023-07-09T06:48:20;30.90;64.90
54846;DHT22;53889;50.084;8.646;2023-07-09T06:50:47;32.70;64.90
54846;DHT22;53889;50.084;8.646;2023-07-09T06:53:15;31.20;62.60
54846;DHT22;53889;50.084;8.646;2023-07-09T06:55:42;32.60;63.20
54846;DHT22;53889;50.084;8.646;2023-07-09T06:58:09;31.90;61.60
54846;DHT22;53889;50.084;8.646;2023-07-09T07:00:39;32.40;60.50
54846;DHT22;53889;50.084;8.646;2023-07-09T07:03:09;31.10;62.60
54846;DHT22;53889;50.084;8.646;2023-07-09T07:05:36;31.50;62.80
54846;DHT22;53889;50.084;8.646;2023-07-09T07:08:03;31.90;62.10
54846;DHT22;53889;50.084;8.646;2023-07-09T07:10:32;32.30;61.40
54846;DHT22;53889;50.084;8.646;2023-07-09T07:12:58;33.80;61.50
54846;DHT22;53889;50.084;8.646;2023-07-09T07:15:25;33.50;60.30
54846;DHT22;53889;50.084;8.646;2023-07-09T07:17:52;33.50;58.90
54846;DHT22;53889;50.084;8.646;2023-07-09T07:20:20;32.50;60.30
54846;DHT22;53889;50.084;8.646;2023-07-09T07:22:47;32.20;61.50
54846;DHT22;53889;50.084;8.646;2023-07-09T07:25:14;32.50;61.20
54846;DHT22;53889;50.084;8.646;2023-07-09T07:27:41;31.50;62.20
54846;DHT22;53889;50.084;8.646;2023-07-09T07:30:09;32.10;62.30
54846;DHT22;53889;50.084;8.646;2023-07-09T07:32:37;32.60;61.30
54846;DHT22;53889;50.084;8.646;2023-07-09T07:35:05;32.90;60.70
54846;DHT22;53889;50.084;8.646;2023-07-09T07:37:33;32.90;60.60
54846;DHT22;53889;50.084;8.646;2023-07-09T07:40:01;33.20;60.20
54846;DHT22;53889;50.084;8.646;2023-07-09T07:42:30;33.30;60.40
54846;DHT22;53889;50.084;8.646;2023-07-09T07:45:03;33.50;59.90
54846;DHT22;53889;50.084;8.646;2023-07-09T07:47:59;33.20;60.10
54846;DHT22;53889;50.084;8.646;2023-07-09T07:50:26;35.40;63.10
54846;DHT22;53889;50.084;8.646;2023-07-09T07:53:00;33.40;61.10
54846;DHT22;53889;50.084;8.646;2023-07-09T07:55:27;33.40;59.80
54846;DHT22;53889;50.084;8.646;2023-07-09T07:58:00;35.50;59.70
54846;DHT22;53889;50.084;8.646;2023-07-09T08:00:35;33.80;59.10
54846;DHT22;53889;50.084;8.646;2023-07-09T08:03:02;33.70;57.80
54846;DHT22;53889;50.084;8.646;2023-07-09T08:05:29;34.00;57.00
54846;DHT22;53889;50.084;8.646;2023-07-09T08:08:04;34.30;56.20
54846;DHT22;53889;50.084;8.646;2023-07-09T08:10:32;33.60;55.50
54846;DHT22;53889;50.084;8.646;2023-07-09T08:12:59;34.60;56.30
54846;DHT22;53889;50.084;8.646;2023-07-09T08:15:26;35.10;54.50
54846;DHT22;53889;50.084;8.646;2023-07-09T08:17:54;35.30;53.40
54846;DHT22;53889;50.084;8.646;2023-07-09T08:20:24;35.00;53.70
54846;DHT22;53889;50.084;8.646;2023-07-09T08:22:50;34.50;54.60
54846;DHT22;53889;50.084;8.646;2023-07-09T08:25:19;35.80;55.40
54846;DHT22;53889;50.084;8.646;2023-07-09T08:27:46;34.50;54.30
54846;DHT22;53889;50.084;8.646;2023-07-09T08:30:12;34.00;54.90
54846;DHT22;53889;50.084;8.646;2023-07-09T08:32:39;34.40;55.30
54846;DHT22;53889;50.084;8.646;2023-07-09T08:35:07;34.50;55.10
54846;DHT22;53889;50.084;8.646;2023-07-09T08:37:35;34.70;55.20
54846;DHT22;53889;50.084;8.646;2023-07-09T08:40:03;34.80;54.10
54846;DHT22;53889;50.084;8.646;2023-07-09T08:42:39;35.20;53.40
54846;DHT22;53889;50.084;8.646;2023-07-09T08:45:19;34.90;53.00
54846;DHT22;53889;50.084;8.646;2023-07-09T08:47:59;35.50;53.60
54846;DHT22;53889;50.084;8.646;2023-07-09T08:50:35;36.10;52.90
54846;DHT22;53889;50.084;8.646;2023-07-09T08:53:05;36.40;52.10
54846;DHT22;53889;50.084;8.646;2023-07-09T08:55:38;36.70;51.90
54846;DHT22;53889;50.084;8.646;2023-07-09T08:58:13;37.20;50.90
54846;DHT22;53889;50.084;8.646;2023-07-09T09:00:45;37.20;51.50
54846;DHT22;53889;50.084;8.646;2023-07-09T09:03:29;37.40;50.90
54846;DHT22;53889;50.084;8.646;2023-07-09T09:05:57;37.10;51.40
54846;DHT22;53889;50.084;8.646;2023-07-09T09:08:34;37.30;51.10
54846;DHT22;53889;50.084;8.646;2023-07-09T09:11:19;37.30;50.90
54846;DHT22;53889;50.084;8.646;2023-07-09T09:13:53;37.70;51.00
54846;DHT22;53889;50.084;8.646;2023-07-09T09:16:30;37.70;50.80
54846;DHT22;53889;50.084;8.646;2023-07-09T09:19:00;38.10;52.30
54846;DHT22;53889;50.084;8.646;2023-07-09T09:21:31;37.40;51.20
54846;DHT22;53889;50.084;8.646;2023-07-09T09:24:10;39.30;52.60
54846;DHT22;53889;50.084;8.646;2023-07-09T09:26:42;37.10;51.40
54846;DHT22;53889;50.084;8.646;2023-07-09T09:29:13;36.90;51.60
54846;DHT22;53889;50.084;8.646;2023-07-09T09:31:41;37.40;51.40
54846;DHT22;53889;50.084;8.646;2023-07-09T09:34:17;38.70;52.60
54846;DHT22;53889;50.084;8.646;2023-07-09T09:36:44;37.80;51.30
54846;DHT22;53889;50.084;8.646;2023-07-09T09:39:11;39.70;51.20
54846;DHT22;53889;50.084;8.646;2023-07-09T09:41:38;39.00;49.80
54846;DHT22;53889;50.084;8.646;2023-07-09T09:44:21;40.70;50.30
54846;DHT22;53889;50.084;8.646;2023-07-09T09:46:48;39.10;49.90
54846;DHT22;53889;50.084;8.646;2023-07-09T09:49:15;39.60;52.70
54846;DHT22;53889;50.084;8.646;2023-07-09T09:51:44;37.80;51.20
54846;DHT22;53889;50.084;8.646;2023-07-09T09:54:17;38.50;50.10
54846;DHT22;53889;50.084;8.646;2023-07-09T09:56:44;38.60;49.50
54846;DHT22;53889;50.084;8.646;2023-07-09T10:02:25;38.70;49.10
54846;DHT22;53889;50.084;8.646;2023-07-09T10:04:52;37.90;48.20
54846;DHT22;53889;50.084;8.646;2023-07-09T10:07:23;37.50;48.80
54846;DHT22;53889;50.084;8.646;2023-07-09T10:09:54;38.20;48.70
54846;DHT22;53889;50.084;8.646;2023-07-09T10:12:35;37.60;49.60
54846;DHT22;53889;50.084;8.646;2023-07-09T10:15:14;38.00;50.20
54846;DHT22;53889;50.084;8.646;2023-07-09T10:17:53;39.00;49.20
54846;DHT22;53889;50.084;8.646;2023-07-09T10:20:24;39.40;48.20
54846;DHT22;53889;50.084;8.646;2023-07-09T10:22:55;40.30;47.70
54846;DHT22;53889;50.084;8.646;2023-07-09T10:25:33;40.40;46.80
54846;DHT22;53889;50.084;8.646;2023-07-09T10:28:26;40.40;46.40
54846;DHT22;53889;50.084;8.646;2023-07-09T10:31:07;40.60;46.30
54846;DHT22;53889;50.084;8.646;2023-07-09T10:33:48;40.50;46.10
54846;DHT22;53889;50.084;8.646;2023-07-09T10:36:26;40.40;46.20
54846;DHT22;53889;50.084;8.646;2023-07-09T10:39:00;40.20;46.30
54846;DHT22;53889;50.084;8.646;2023-07-09T10:41:30;40.20;45.70
54846;DHT22;53889;50.084;8.646;2023-07-09T10:44:01;40.40;45.60
54846;DHT22;53889;50.084;8.646;2023-07-09T10:46:31;39.70;45.70
54846;DHT22;53889;50.084;8.646;2023-07-09T10:49:00;40.50;45.60
54846;DHT22;53889;50.084;8.646;2023-07-09T10:51:33;40.40;45.70
54846;DHT22;53889;50.084;8.646;2023-07-09T10:54:09;39.30;45.50
54846;DHT22;53889;50.084;8.646;2023-07-09T10:56:39;38.30;46.90
54846;DHT22;53889;50.084;8.646;2023-07-09T10:59:16;38.90;47.40
54846;DHT22;53889;50.084;8.646;2023-07-09T11:01:47;39.40;46.80
54846;DHT22;53889;50.084;8.646;2023-07-09T11:04:24;39.70;46.80
54846;DHT22;53889;50.084;8.646;2023-07-09T11:06:53;40.20;46.00
54846;DHT22;53889;50.084;8.646;2023-07-09T11:09:24;40.90;45.60
54846;DHT22;53889;50.084;8.646;2023-07-09T11:11:55;40.50;45.20
54846;DHT22;53889;50.084;8.646;2023-07-09T11:14:27;40.60;44.70
54846;DHT22;53889;50.084;8.646;2023-07-09T11:16:58;41.00;45.30
54846;DHT22;53889;50.084;8.646;2023-07-09T11:19:28;39.50;45.10
54846;DHT22;53889;50.084;8.646;2023-07-09T11:22:05;40.00;45.60
54846;DHT22;53889;50.084;8.646;2023-07-09T11:24:35;39.90;45.10
54846;DHT22;53889;50.084;8.646;2023-07-09T11:27:03;40.70;44.60
54846;DHT22;53889;50.084;8.646;2023-07-09T11:29:46;41.40;44.10
54846;DHT22;53889;50.084;8.646;2023-07-09T11:32:18;41.90;44.10
54846;DHT22;53889;50.084;8.646;2023-07-09T11:34:48;42.10;43.10
54846;DHT22;53889;50.084;8.646;2023-07-09T11:37:17;41.50;43.50
54846;DHT22;53889;50.084;8.646;2023-07-09T11:39:46;41.50;42.20
54846;DHT22;53889;50.084;8.646;2023-07-09T11:42:28;42.10;42.70
54846;DHT22;53889;50.084;8.646;2023-07-09T11:45:02;42.60;42.10
54846;DHT22;53889;50.084;8.646;2023-07-09T11:47:32;42.60;41.40
54846;DHT22;53889;50.084;8.646;2023-07-09T11:50:05;43.00;42.10
54846;DHT22;53889;50.084;8.646;2023-07-09T11:52:34;42.80;42.60
54846;DHT22;53889;50.084;8.646;2023-07-09T11:55:20;42.60;42.80
54846;DHT22;53889;50.084;8.646;2023-07-09T11:57:48;42.60;42.80
54846;DHT22;53889;50.084;8.646;2023-07-09T12:00:16;42.60;42.10
54846;DHT22;53889;50.084;8.646;2023-07-09T12:02:43;43.00;41.10
54846;DHT22;53889;50.084;8.646;2023-07-09T12:05:21;43.00;40.50
54846;DHT22;53889;50.084;8.646;2023-07-09T12:07:49;41.40;41.40
54846;DHT22;53889;50.084;8.646;2023-07-09T12:10:22;39.20;43.70
54846;DHT22;53889;50.084;8.646;2023-07-09T12:12:53;39.60;43.80
54846;DHT22;53889;50.084;8.646;2023-07-09T12:15:24;40.70;42.80
54846;DHT22;53889;50.084;8.646;2023-07-09T12:17:56;41.50;42.80
54846;DHT22;53889;50.084;8.646;2023-07-09T12:20:24;41.20;42.40
54846;DHT22;53889;50.084;8.646;2023-07-09T12:22:51;42.00;45.00
54846;DHT22;53889;50.084;8.646;2023-07-09T12:25:22;40.70;43.20
54846;DHT22;53889;50.084;8.646;2023-07-09T12:27:49;40.60;43.50
54846;DHT22;53889;50.084;8.646;2023-07-09T12:30:17;41.50;43.00
54846;DHT22;53889;50.084;8.646;2023-07-09T12:32:44;41.90;42.30
54846;DHT22;53889;50.084;8.646;2023-07-09T12:35:13;42.10;42.30
54846;DHT22;53889;50.084;8.646;2023-07-09T12:37:43;41.60;41.80
54846;DHT22;53889;50.084;8.646;2023-07-09T12:40:16;41.50;42.20
54846;DHT22;53889;50.084;8.646;2023-07-09T12:42:43;40.40;42.20
54846;DHT22;53889;50.084;8.646;2023-07-09T12:45:15;39.80;43.10
54846;DHT22;53889;50.084;8.646;2023-07-09T12:47:43;40.60;42.90
54846;DHT22;53889;50.084;8.646;2023-07-09T12:50:28;41.30;42.30
54846;DHT22;53889;50.084;8.646;2023-07-09T12:53:02;41.60;41.50
54846;DHT22;53889;50.084;8.646;2023-07-09T12:55:36;43.10;42.50
54846;DHT22;53889;50.084;8.646;2023-07-09T12:58:07;42.00;39.50
54846;DHT22;53889;50.084;8.646;2023-07-09T13:00:34;41.20;39.20
54846;DHT22;53889;50.084;8.646;2023-07-09T13:03:02;40.80;39.80
54846;DHT22;53889;50.084;8.646;2023-07-09T13:05:29;40.20;40.70
54846;DHT22;53889;50.084;8.646;2023-07-09T13:08:01;40.00;40.90
54846;DHT22;53889;50.084;8.646;2023-07-09T13:10:30;40.20;40.00
54846;DHT22;53889;50.084;8.646;2023-07-09T13:13:01;40.70;40.30
54846;DHT22;53889;50.084;8.646;2023-07-09T13:15:30;40.60;40.00
54846;DHT22;53889;50.084;8.646;2023-07-09T13:17:58;40.20;40.90
54846;DHT22;53889;50.084;8.646;2023-07-09T13:20:26;40.30;40.50
54846;DHT22;53889;50.084;8.646;2023-07-09T13:22:53;40.20;40.40
54846;DHT22;53889;50.084;8.646;2023-07-09T13:25:21;39.90;41.80
54846;DHT22;53889;50.084;8.646;2023-07-09T13:27:48;39.70;41.80
54846;DHT22;53889;50.084;8.646;2023-07-09T13:30:15;39.30;41.90
54846;DHT22;53889;50.084;8.646;2023-07-09T13:32:41;38.80;42.60
54846;DHT22;53889;50.084;8.646;2023-07-09T13:35:14;38.60;43.00
54846;DHT22;53889;50.084;8.646;2023-07-09T13:37:41;38.60;42.70
54846;DHT22;53889;50.084;8.646;2023-07-09T13:40:11;38.40;42.70
54846;DHT22;53889;50.084;8.646;2023-07-09T13:42:40;39.00;44.50
54846;DHT22;53889;50.084;8.646;2023-07-09T13:45:21;37.20;43.50
54846;DHT22;53889;50.084;8.646;2023-07-09T13:47:48;37.50;43.30
54846;DHT22;53889;50.084;8.646;2023-07-09T13:50:16;37.60;43.20
54846;DHT22;53889;50.084;8.646;2023-07-09T13:52:43;37.40;43.30
54846;DHT22;53889;50.084;8.646;2023-07-09T13:55:18;37.50;43.80
54846;DHT22;53889;50.084;8.646;2023-07-09T13:57:47;37.60;42.90
54846;DHT22;53889;50.084;8.646;2023-07-09T14:00:16;37.30;42.90
54846;DHT22;53889;50.084;8.646;2023-07-09T14:02:44;37.30;43.60
54846;DHT22;53889;50.084;8.646;2023-07-09T14:05:12;37.20;43.70
54846;DHT22;53889;50.084;8.646;2023-07-09T14:07:41;37.30;43.60
54846;DHT22;53889;50.084;8.646;2023-07-09T14:10:12;37.10;43.90
54846;DHT22;53889;50.084;8.646;2023-07-09T14:12:42;37.20;44.10
54846;DHT22;53889;50.084;8.646;2023-07-09T14:15:14;37.10;44.40
54846;DHT22;53889;50.084;8.646;2023-07-09T14:17:42;37.30;44.60
54846;DHT22;53889;50.084;8.646;2023-07-09T14:20:11;37.50;44.40
54846;DHT22;53889;50.084;8.646;2023-07-09T14:22:39;37.40;44.20
54846;DHT22;53889;50.084;8.646;2023-07-09T14:25:17;37.30;44.30
54846;DHT22;53889;50.084;8.646;2023-07-09T14:27:44;37.30;44.90
54846;DHT22;53889;50.084;8.646;2023-07-09T14:30:15;37.30;45.00
54846;DHT22;53889;50.084;8.646;2023-07-09T14:32:43;36.90;45.10
54846;DHT22;53889;50.084;8.646;2023-07-09T14:35:14;36.90;45.10
54846;DHT22;53889;50.084;8.646;2023-07-09T14:37:41;37.20;45.10
54846;DHT22;53889;50.084;8.646;2023-07-09T14:40:09;37.40;45.20
54846;DHT22;53889;50.084;8.646;2023-07-09T14:42:37;37.50;44.80
54846;DHT22;53889;50.084;8.646;2023-07-09T14:45:05;37.50;44.10
54846;DHT22;53889;50.084;8.646;2023-07-09T14:47:34;36.80;44.40
54846;DHT22;53889;50.084;8.646;2023-07-09T14:50:01;37.10;44.50
54846;DHT22;53889;50.084;8.646;2023-07-09T14:52:30;37.30;45.40
54846;DHT22;53889;50.084;8.646;2023-07-09T14:54:57;37.40;45.50
54846;DHT22;53889;50.084;8.646;2023-07-09T14:57:25;37.50;45.40
54846;DHT22;53889;50.084;8.646;2023-07-09T14:59:56;37.40;45.90
54846;DHT22;53889;50.084;8.646;2023-07-09T15:02:31;37.00;45.40
54846;DHT22;53889;50.084;8.646;2023-07-09T15:05:02;37.10;45.10
54846;DHT22;53889;50.084;8.646;2023-07-09T15:07:29;37.10;45.30
54846;DHT22;53889;50.084;8.646;2023-07-09T15:09:56;37.30;44.50
54846;DHT22;53889;50.084;8.646;2023-07-09T15:12:26;37.20;44.30
54846;DHT22;53889;50.084;8.646;2023-07-09T15:14:58;37.30;43.80
54846;DHT22;53889;50.084;8.646;2023-07-09T15:17:27;37.10;44.10
54846;DHT22;53889;50.084;8.646;2023-07-09T15:19:54;37.10;44.00
54846;DHT22;53889;50.084;8.646;2023-07-09T15:22:28;37.00;44.40
54846;DHT22;53889;50.084;8.646;2023-07-09T15:24:57;37.00;44.50
54846;DHT22;53889;50.084;8.646;2023-07-09T15:27:23;38.30;45.30
54846;DHT22;53889;50.084;8.646;2023-07-09T15:29:50;36.90;44.50
54846;DHT22;53889;50.084;8.646;2023-07-09T15:32:19;36.90;44.30
54846;DHT22;53889;50.084;8.646;2023-07-09T15:34:46;37.10;44.30
54846;DHT22;53889;50.084;8.646;2023-07-09T15:37:15;36.90;44.70
54846;DHT22;53889;50.084;8.646;2023-07-09T15:39:44;36.80;44.70
54846;DHT22;53889;50.084;8.646;2023-07-09T15:42:12;36.70;44.60
54846;DHT22;53889;50.084;8.646;2023-07-09T15:44:39;36.90;44.40
54846;DHT22;53889;50.084;8.646;2023-07-09T15:47:16;36.90;44.50
54846;DHT22;53889;50.084;8.646;2023-07-09T15:49:43;36.90;44.50